Погода Свитына 2 недели

Смоленская область, Россия

24 мая-06 июня
  • 24мая
    Сегодня
    +7°
    +21°
    Ясно и безоблачно
    ВремяПогодаТемператураВлажностьДавлениеВетер, м/сВероятность осадков
    00:00Ясно и безоблачно+13°C51 %754 мм1.7 м/с2 %
    03:00Ясно и безоблачно+10°C60 %755 мм1.7 м/с2 %
    06:00Ясно и безоблачно+10°C62 %756 мм1.5 м/с2 %
    09:00Ясно и безоблачно+17°C46 %757 мм2.1 м/с2 %
    12:00Ясно и безоблачно+20°C32 %757 мм3.2 м/с2 %
    15:00Ясно и безоблачно+21°C30 %756 мм3.8 м/с2 %
    18:00Ясно и безоблачно+21°C32 %755 мм2.7 м/с2 %
    21:00Ясно и безоблачно+16°C49 %755 мм2.0 м/с2 %
  • 25мая
    Суббота
    +9°
    +24°
    Ясно и безоблачно
    ВремяПогодаТемператураВлажностьДавлениеВетер, м/сВероятность осадков
    00:00Ясно и безоблачно+12°C56 %755 мм1.5 м/с2 %
    03:00Ясно и безоблачно+9°C62 %755 мм1.5 м/с2 %
    06:00Ясно и безоблачно+9°C64 %755 мм1.4 м/с2 %
    09:00Ясно и безоблачно+17°C50 %755 мм1.9 м/с2 %
    12:00Ясно и безоблачно+21°C36 %754 мм2.3 м/с2 %
    15:00Ясно и безоблачно+23°C33 %753 мм3.1 м/с2 %
    18:00Ясно и безоблачно+23°C34 %752 мм2.1 м/с2 %
    21:00Ясно и безоблачно+19°C65 %751 мм1.7 м/с2 %
  • 26мая
    Воскресенье
    +10°
    +26°
    Практически безоблачно
    ВремяПогодаТемператураВлажностьДавлениеВетер, м/сВероятность осадков
    00:00Ясно и безоблачно+14°C62 %751 мм1.0 м/с2 %
    03:00Ясно и безоблачно+11°C76 %751 мм0.9 м/с2 %
    06:00Ясно и безоблачно+11°C78 %751 мм1.0 м/с2 %
    09:00Ясно и безоблачно+20°C53 %752 мм1.4 м/с2 %
    12:00Облачно с прояснениями+23°C35 %752 мм2.0 м/с2 %
    15:00Практически безоблачно+24°C34 %751 мм2.4 м/с9 %
    18:00Практически безоблачно+22°C50 %751 мм1.9 м/с22 %
    21:00Ясно и безоблачно+19°C71 %751 мм1.2 м/с6 %
  • 27мая
    Понедельник
    +9°
    +23°
    Ясно и безоблачно
    ВремяПогодаТемператураВлажностьДавлениеВетер, м/сВероятность осадков
    00:00Практически безоблачно+15°C86 %751 мм1.0 м/с2 %
    03:00Практически безоблачно+13°C93 %752 мм1.4 м/с2 %
    06:00Ясно и безоблачно+11°C83 %753 мм1.3 м/с2 %
    09:00Ясно и безоблачно+19°C53 %753 мм1.9 м/с2 %
    12:00Ясно и безоблачно+22°C45 %753 мм2.1 м/с18 %
    15:00Ясно и безоблачно+23°C36 %752 мм2.3 м/с23 %
    18:00Ясно и безоблачно+23°C35 %751 мм1.5 м/с28 %
    21:00Ясно и безоблачно+20°C51 %751 мм1.9 м/с12 %
  • 28мая
    Вторник
    +9°
    +24°
    Практически безоблачно
    ВремяПогодаТемператураВлажностьДавлениеВетер, м/сВероятность осадков
    00:00Ясно и безоблачно+16°C65 %751 мм1.3 м/с2 %
    03:00Ясно и безоблачно+13°C82 %751 мм1.4 м/с2 %
    06:00Ясно и безоблачно+12°C85 %751 мм1.1 м/с7 %
    09:00Ясно и безоблачно+21°C63 %751 мм1.5 м/с5 %
    12:00Практически безоблачно+23°C45 %751 мм1.8 м/с14 %
    15:00Практически безоблачно+24°C41 %750 мм2.6 м/с9 %
    18:00Практически безоблачно+23°C40 %749 мм1.4 м/с7 %
    21:00Ясно и безоблачно+20°C61 %749 мм1.4 м/с2 %
Мы используем cookies
Соглашаюсь